Time;durP1;ratioP1;P1;durP2;ratioP2;P2;SDS_P1;SDS_P2;PMS_P1;PMS_P2;Temp;Humidity;BMP_temperature;BMP_pressure;BME280_temperature;BME280_humidity;BME280_pressure;Samples;Min_cycle;Max_cycle;Signal;HPM_P1;HPM_P2
2023/05/01 00:00:47;;;;;;;1999.90;999.90;;;13.70;99.90;;;;;;5014347;28;20026;-79
2023/05/01 00:03:13;;;;;;;1999.90;999.90;;;13.60;99.90;;;;;;5014362;28;20021;-80
2023/05/01 00:05:39;;;;;;;1999.90;999.90;;;13.70;99.90;;;;;;5013027;28;20033;-79
2023/05/01 00:08:04;;;;;;;1999.90;999.90;;;13.70;99.90;;;;;;5008629;28;20030;-79
2023/05/01 00:10:30;;;;;;;1999.90;999.90;;;13.70;99.90;;;;;;4994483;28;20015;-80
2023/05/01 00:12:56;;;;;;;1999.90;999.90;;;13.70;99.90;;;;;;4993505;28;20409;-73
2023/05/01 00:15:21;;;;;;;1999.90;999.90;;;13.70;99.90;;;;;;4994479;28;20077;-73
2023/05/01 00:17:47;;;;;;;1999.90;999.90;;;13.70;99.90;;;;;;4994464;28;20062;-72
2023/05/01 00:20:13;;;;;;;1999.90;999.90;;;13.70;99.90;;;;;;4994299;28;20527;-79
2023/05/01 00:22:39;;;;;;;1999.90;999.90;;;13.80;99.90;;;;;;4994323;28;20034;-72
2023/05/01 00:25:05;;;;;;;1999.90;999.90;;;13.80;99.90;;;;;;4994302;28;20026;-73
2023/05/01 00:27:30;;;;;;;1999.90;999.90;;;13.80;99.90;;;;;;5009260;28;20374;-73
2023/05/01 00:29:56;;;;;;;1999.90;999.90;;;13.80;99.90;;;;;;4994491;28;20023;-72
2023/05/01 00:32:22;;;;;;;1999.90;999.90;;;13.80;99.90;;;;;;4993642;28;20114;-79
2023/05/01 00:34:48;;;;;;;1999.90;999.90;;;13.80;99.90;;;;;;4992890;28;20038;-79
2023/05/01 00:37:14;;;;;;;1999.90;999.90;;;13.80;99.90;;;;;;4992842;28;20023;-80
2023/05/01 00:39:40;;;;;;;1999.90;999.90;;;13.90;99.90;;;;;;4993980;28;20050;-72
2023/05/01 00:42:05;;;;;;;1999.90;999.90;;;13.90;99.90;;;;;;4993337;28;20516;-80
2023/05/01 00:44:31;;;;;;;1999.90;999.90;;;13.80;99.90;;;;;;5009148;28;20026;-72
2023/05/01 00:46:59;;;;;;;1999.90;999.90;;;13.90;99.90;;;;;;4993800;28;20026;-79
2023/05/01 00:49:25;;;;;;;1999.90;999.90;;;13.90;99.90;;;;;;5028555;28;20026;-79
2023/05/01 00:51:52;;;;;;;1999.90;999.90;;;13.90;99.90;;;;;;5041307;28;20041;-79
2023/05/01 00:54:18;;;;;;;1999.90;999.90;;;14.00;99.90;;;;;;5053113;28;20482;-72
2023/05/01 00:56:46;;;;;;;1999.90;999.90;;;14.00;99.90;;;;;;5052807;28;20021;-79
2023/05/01 00:59:13;;;;;;;1999.90;999.90;;;14.10;99.90;;;;;;5053270;28;20021;-73
2023/05/01 01:01:41;;;;;;;1999.90;999.90;;;14.20;99.90;;;;;;5052699;28;20032;-72
2023/05/01 01:04:07;;;;;;;1999.90;999.90;;;14.20;99.90;;;;;;5053090;28;20057;-73
2023/05/01 01:06:51;;;;;;;1999.90;999.90;;;14.20;99.90;;;;;;5053099;28;20095;-80
2023/05/01 01:09:46;;;;;;;1999.90;999.90;;;14.20;99.90;;;;;;5052877;28;20021;-79
2023/05/01 01:12:27;;;;;;;1999.90;999.90;;;14.30;99.90;;;;;;5033028;28;20124;-72
2023/05/01 01:15:20;;;;;;;1999.90;999.90;;;14.30;99.90;;;;;;5052852;28;20017;-79
2023/05/01 01:18:06;;;;;;;1999.90;999.90;;;14.30;99.90;;;;;;5033964;28;20025;-72
2023/05/01 01:20:55;;;;;;;1999.90;999.90;;;14.20;99.90;;;;;;5034843;28;20033;-72
2023/05/01 01:23:39;;;;;;;1999.90;999.90;;;14.20;99.90;;;;;;5053887;28;20086;-72
2023/05/01 01:26:32;;;;;;;1999.90;999.90;;;14.30;99.90;;;;;;5057018;28;20020;-73
2023/05/01 01:29:13;;;;;;;1999.90;999.90;;;14.30;99.90;;;;;;5056847;28;20083;-72
2023/05/01 01:32:07;;;;;;;1999.90;999.90;;;14.20;99.90;;;;;;5056812;28;20075;-73
2023/05/01 01:34:38;;;;;;;1999.90;999.90;;;14.20;99.90;;;;;;5056348;28;20037;-72
2023/05/01 01:37:13;;;;;;;1999.90;999.90;;;14.20;99.90;;;;;;5056487;28;20021;-79
2023/05/01 01:39:45;;;;;;;1999.90;999.90;;;14.20;99.90;;;;;;5056526;28;20443;-79
2023/05/01 01:42:18;;;;;;;1999.90;999.90;;;14.10;99.90;;;;;;5056401;28;20033;-79
2023/05/01 01:44:51;;;;;;;1999.90;999.90;;;14.00;99.90;;;;;;5064048;28;20107;-72
2023/05/01 01:47:19;;;;;;;1999.90;999.90;;;14.10;99.90;;;;;;5063018;28;20060;-79
2023/05/01 01:49:48;;;;;;;1999.90;999.90;;;14.00;99.90;;;;;;5056411;28;20100;-79
2023/05/01 01:52:16;;;;;;;1999.90;999.90;;;13.90;99.90;;;;;;5056176;28;20052;-72
2023/05/01 01:54:52;;;;;;;1999.90;999.90;;;13.90;99.90;;;;;;5056690;28;20028;-79
2023/05/01 01:57:21;;;;;;;1999.90;999.90;;;13.90;99.90;;;;;;5056462;28;20028;-72
2023/05/01 01:59:48;;;;;;;1999.90;999.90;;;13.80;99.90;;;;;;5056772;28;20087;-73
2023/05/01 02:02:19;;;;;;;1999.90;999.90;;;13.80;99.90;;;;;;5038199;28;20029;-73
2023/05/01 02:04:47;;;;;;;1999.90;999.90;;;13.90;99.90;;;;;;5056449;28;20025;-79
2023/05/01 02:07:15;;;;;;;1999.90;999.90;;;13.90;99.90;;;;;;5056406;28;20025;-79
2023/05/01 02:09:43;;;;;;;1999.90;999.90;;;13.80;99.90;;;;;;5036804;28;20033;-73
2023/05/01 02:12:11;;;;;;;1999.90;999.90;;;13.70;99.90;;;;;;5055900;28;20025;-72
2023/05/01 02:14:37;;;;;;;1999.90;999.90;;;13.70;99.90;;;;;;5055915;28;20017;-72
2023/05/01 02:17:03;;;;;;;1999.90;999.90;;;13.70;99.90;;;;;;5056242;28;20032;-72
2023/05/01 02:19:31;;;;;;;1999.90;999.90;;;13.60;99.90;;;;;;5038089;28;20032;-79
2023/05/01 02:21:58;;;;;;;1999.90;999.90;;;13.60;99.90;;;;;;5056089;28;20038;-79
2023/05/01 02:24:26;;;;;;;1999.90;999.90;;;13.60;99.90;;;;;;5055624;28;20377;-73
2023/05/01 02:27:14;;;;;;;1999.90;999.90;;;13.60;99.90;;;;;;5055593;28;20013;-73
2023/05/01 02:29:40;;;;;;;1999.90;999.90;;;13.60;99.90;;;;;;5037473;28;20399;-79
2023/05/01 02:32:05;;;;;;;1999.90;999.90;;;13.60;99.90;;;;;;5055759;28;20032;-79
2023/05/01 02:34:34;;;;;;;1999.90;999.90;;;13.70;99.90;;;;;;5054558;28;20040;-73
2023/05/01 02:37:00;;;;;;;1999.90;999.90;;;13.70;99.90;;;;;;5037317;28;20029;-79
2023/05/01 02:39:26;;;;;;;1999.90;999.90;;;13.70;99.90;;;;;;5055383;28;20090;-72
2023/05/01 02:41:54;;;;;;;1999.90;999.90;;;13.70;99.90;;;;;;5055613;28;20021;-73
2023/05/01 02:44:21;;;;;;;1999.90;999.90;;;13.80;99.90;;;;;;5054408;28;20551;-79
2023/05/01 02:46:48;;;;;;;1999.90;999.90;;;13.80;99.90;;;;;;5055586;28;20017;-79
2023/05/01 02:49:16;;;;;;;1999.90;999.90;;;13.70;99.90;;;;;;5055250;28;20434;-73
2023/05/01 02:51:42;;;;;;;1999.90;999.90;;;13.80;99.90;;;;;;5055173;28;20124;-79
2023/05/01 02:54:08;;;;;;;1999.90;999.90;;;13.80;99.90;;;;;;5055293;28;20032;-79
2023/05/01 02:56:34;;;;;;;1999.90;999.90;;;13.80;99.90;;;;;;5055604;28;20052;-73
2023/05/01 02:59:00;;;;;;;1999.90;999.90;;;13.80;99.90;;;;;;5055683;28;20404;-73
2023/05/01 03:01:27;;;;;;;1999.90;999.90;;;13.80;99.90;;;;;;5055196;28;20096;-73
2023/05/01 03:03:52;;;;;;;1999.90;999.90;;;13.90;99.90;;;;;;5037039;28;20036;-79
2023/05/01 03:06:18;;;;;;;1999.90;999.90;;;13.90;99.90;;;;;;5055204;28;20021;-78
2023/05/01 03:08:44;;;;;;;1999.90;999.90;;;13.90;99.90;;;;;;5054857;28;20025;-79
2023/05/01 03:11:09;;;;;;;1999.90;999.90;;;13.90;99.90;;;;;;5054899;28;20024;-79
2023/05/01 03:13:35;;;;;;;1999.90;999.90;;;13.90;99.90;;;;;;5054691;28;20070;-79
2023/05/01 03:16:03;;;;;;;1999.90;999.90;;;13.90;99.90;;;;;;5036761;28;20557;-73
2023/05/01 03:18:28;;;;;;;1999.90;999.90;;;14.00;99.90;;;;;;5054840;28;20029;-79
2023/05/01 03:20:57;;;;;;;1999.90;999.90;;;14.00;99.90;;;;;;5054938;28;20035;-79
2023/05/01 03:23:23;;;;;;;1999.90;999.90;;;14.00;99.90;;;;;;5054707;28;20061;-73
2023/05/01 03:25:49;;;;;;;1999.90;999.90;;;14.00;99.90;;;;;;5036889;28;20052;-79
2023/05/01 03:28:15;;;;;;;1999.90;999.90;;;14.00;99.90;;;;;;5054695;28;20028;-72
2023/05/01 03:30:41;;;;;;;1999.90;999.90;;;14.00;99.90;;;;;;5054859;28;20021;-73
2023/05/01 03:33:07;;;;;;;1999.90;999.90;;;13.90;99.90;;;;;;5054743;28;20051;-79
2023/05/01 03:35:32;;;;;;;1999.90;999.90;;;13.90;99.90;;;;;;5054560;28;20041;-79
2023/05/01 03:37:58;;;;;;;1999.90;999.90;;;13.90;99.90;;;;;;5054497;28;20022;-72
2023/05/01 03:40:24;;;;;;;1999.90;999.90;;;13.90;99.90;;;;;;5054122;28;20035;-73
2023/05/01 03:42:49;;;;;;;1999.90;999.90;;;13.90;99.90;;;;;;5054492;28;20052;-73
2023/05/01 03:45:15;;;;;;;1999.90;999.90;;;14.00;99.90;;;;;;5053594;28;20052;-73
2023/05/01 03:47:41;;;;;;;1999.90;999.90;;;14.00;99.90;;;;;;5054311;28;20479;-79
2023/05/01 03:50:07;;;;;;;1999.90;999.90;;;14.00;99.90;;;;;;5054142;28;20032;-79
2023/05/01 03:52:33;;;;;;;1999.90;999.90;;;14.00;99.90;;;;;;5053864;28;20036;-79
2023/05/01 03:54:59;;;;;;;1999.90;999.90;;;14.00;99.90;;;;;;5053903;28;20102;-79
2023/05/01 03:57:26;;;;;;;1999.90;999.90;;;13.90;99.90;;;;;;5054825;28;20454;-73
2023/05/01 03:59:52;;;;;;;1999.90;999.90;;;14.00;99.90;;;;;;5054089;28;20017;-79
2023/05/01 04:02:17;;;;;;;1999.90;999.90;;;14.00;99.90;;;;;;5053378;28;20480;-79
2023/05/01 04:04:43;;;;;;;1999.90;999.90;;;13.90;99.90;;;;;;5053512;28;20025;-80
2023/05/01 04:07:09;;;;;;;1999.90;999.90;;;14.00;99.90;;;;;;5054203;28;20017;-73
2023/05/01 04:09:35;;;;;;;1999.90;999.90;;;14.00;99.90;;;;;;5035848;28;20036;-80
2023/05/01 04:12:01;;;;;;;1999.90;999.90;;;14.00;99.90;;;;;;5054050;28;20096;-73
2023/05/01 04:14:27;;;;;;;1999.90;999.90;;;14.00;99.90;;;;;;5053358;28;20036;-73
2023/05/01 04:16:53;;;;;;;1999.90;999.90;;;13.90;99.90;;;;;;5053545;28;20025;-79
2023/05/01 04:19:18;;;;;;;1999.90;999.90;;;13.90;99.90;;;;;;5052769;28;20554;-73
2023/05/01 04:21:44;;;;;;;1999.90;999.90;;;13.90;99.90;;;;;;5053849;28;20025;-80
2023/05/01 04:24:10;;;;;;;1999.90;999.90;;;14.00;99.90;;;;;;5053469;28;20021;-73
2023/05/01 04:26:37;;;;;;;1999.90;999.90;;;14.00;99.90;;;;;;5053357;28;20044;-80
2023/05/01 04:29:03;;;;;;;1999.90;999.90;;;14.00;99.90;;;;;;5053749;28;20108;-79
2023/05/01 04:31:29;;;;;;;1999.90;999.90;;;14.00;99.90;;;;;;5053434;28;20057;-73
2023/05/01 04:33:55;;;;;;;1999.90;999.90;;;13.90;99.90;;;;;;5035661;28;20131;-73
2023/05/01 04:36:21;;;;;;;1999.90;999.90;;;13.90;99.90;;;;;;5053302;28;20056;-73
2023/05/01 04:38:47;;;;;;;1999.90;999.90;;;14.00;99.90;;;;;;5053591;28;20060;-73
2023/05/01 04:41:13;;;;;;;1999.90;999.90;;;14.00;99.90;;;;;;5035533;28;20492;-79
2023/05/01 04:43:38;;;;;;;1999.90;999.90;;;14.00;99.90;;;;;;5053453;28;20064;-79
2023/05/01 04:46:04;;;;;;;1999.90;999.90;;;14.00;99.90;;;;;;5052282;28;20024;-73
2023/05/01 04:48:30;;;;;;;1999.90;999.90;;;14.00;99.90;;;;;;5053156;28;20111;-72
2023/05/01 04:50:56;;;;;;;1999.90;999.90;;;14.00;99.90;;;;;;5052856;28;20387;-79
2023/05/01 04:53:22;;;;;;;1999.90;999.90;;;13.90;99.90;;;;;;5053148;28;20029;-79
2023/05/01 04:55:47;;;;;;;1999.90;999.90;;;14.00;99.90;;;;;;5053037;28;20104;-79
2023/05/01 04:58:13;;;;;;;1999.90;999.90;;;14.00;99.90;;;;;;5052791;28;20083;-79
2023/05/01 05:00:38;;;;;;;1999.90;999.90;;;13.90;99.90;;;;;;5052796;28;20032;-79
2023/05/01 05:03:04;;;;;;;1999.90;999.90;;;13.90;99.90;;;;;;5052858;28;20028;-79
2023/05/01 05:05:30;;;;;;;1999.90;999.90;;;13.90;99.90;;;;;;5053162;28;20026;-79
2023/05/01 05:07:55;;;;;;;1999.90;999.90;;;13.90;99.90;;;;;;5052769;28;20021;-80
2023/05/01 05:10:21;;;;;;;1999.90;999.90;;;13.90;99.90;;;;;;5052807;28;20017;-79
2023/05/01 05:12:46;;;;;;;1999.90;999.90;;;13.80;99.90;;;;;;5052706;28;20025;-79
2023/05/01 05:15:12;;;;;;;1999.90;999.90;;;13.80;99.90;;;;;;5035205;28;20075;-73
2023/05/01 05:17:38;;;;;;;1999.90;999.90;;;13.90;99.90;;;;;;5052630;28;20036;-79
2023/05/01 05:20:04;;;;;;;1999.90;999.90;;;13.90;99.90;;;;;;5052662;28;20045;-73
2023/05/01 05:22:30;;;;;;;1999.90;999.90;;;13.90;99.90;;;;;;5052974;28;20029;-79
2023/05/01 05:24:58;;;;;;;1999.90;999.90;;;14.00;99.90;;;;;;5052686;28;20025;-79
2023/05/01 05:27:24;;;;;;;1999.90;999.90;;;14.00;99.90;;;;;;5052849;28;20104;-73
2023/05/01 05:29:50;;;;;;;1999.90;999.90;;;14.00;99.90;;;;;;5052657;28;20428;-79
2023/05/01 05:32:16;;;;;;;1999.90;999.90;;;13.90;99.90;;;;;;5052786;28;20033;-79
2023/05/01 05:34:41;;;;;;;1999.90;999.90;;;13.90;99.90;;;;;;5052704;28;20036;-73
2023/05/01 05:37:07;;;;;;;1999.90;999.90;;;13.90;99.90;;;;;;5034788;28;20040;-79
2023/05/01 05:39:33;;;;;;;1999.90;999.90;;;13.90;99.90;;;;;;5052740;28;20059;-73
2023/05/01 05:41:59;;;;;;;1999.90;999.90;;;13.90;99.90;;;;;;5052566;28;20036;-73
2023/05/01 05:44:24;;;;;;;1999.90;999.90;;;13.90;99.90;;;;;;5034497;28;20381;-73
2023/05/01 05:46:50;;;;;;;1999.90;999.90;;;13.90;99.90;;;;;;5051689;28;20025;-79
2023/05/01 05:49:16;;;;;;;1999.90;999.90;;;13.90;99.90;;;;;;5052238;28;20025;-79
2023/05/01 05:51:41;;;;;;;1999.90;999.90;;;13.90;99.90;;;;;;5052548;28;20170;-72
2023/05/01 05:54:07;;;;;;;1999.90;999.90;;;14.00;99.90;;;;;;5034390;28;20027;-73
2023/05/01 05:56:33;;;;;;;1999.90;999.90;;;14.10;99.90;;;;;;5052483;28;20487;-80
2023/05/01 05:59:02;;;;;;;1999.90;999.90;;;14.20;99.90;;;;;;5052674;28;20064;-80
2023/05/01 06:01:27;;;;;;;1999.90;999.90;;;14.20;99.90;;;;;;5052472;28;20025;-79
2023/05/01 06:03:53;;;;;;;1999.90;999.90;;;14.20;99.90;;;;;;5052135;28;20024;-73
2023/05/01 06:06:19;;;;;;;1999.90;999.90;;;14.10;99.90;;;;;;5052373;28;20029;-73
2023/05/01 06:08:45;;;;;;;1999.90;999.90;;;14.20;99.90;;;;;;5052271;28;20486;-79
2023/05/01 06:11:10;;;;;;;1999.90;999.90;;;14.20;99.90;;;;;;5056342;28;20032;-79
2023/05/01 06:13:36;;;;;;;1999.90;999.90;;;14.20;99.90;;;;;;5056529;28;20104;-79
2023/05/01 06:16:02;;;;;;;1999.90;999.90;;;14.30;99.90;;;;;;5056238;28;20033;-79
2023/05/01 06:18:29;;;;;;;1999.90;999.90;;;14.30;99.90;;;;;;5055980;28;20120;-73
2023/05/01 06:20:55;;;;;;;1999.90;999.90;;;14.40;99.90;;;;;;5056047;28;20025;-73
2023/05/01 06:23:21;;;;;;;1999.90;999.90;;;14.30;99.90;;;;;;5038052;28;20017;-79
2023/05/01 06:25:47;;;;;;;1999.90;999.90;;;14.30;99.90;;;;;;5055969;28;20032;-73
2023/05/01 06:28:13;;;;;;;1999.90;999.90;;;14.20;99.90;;;;;;5037814;28;20345;-80
2023/05/01 06:30:39;;;;;;;1999.90;999.90;;;14.30;99.90;;;;;;5055491;28;20036;-79
2023/05/01 06:33:04;;;;;;;1999.90;999.90;;;14.30;99.90;;;;;;5055874;28;20029;-73
2023/05/01 06:35:30;;;;;;;1999.90;999.90;;;14.40;99.90;;;;;;5056013;28;20029;-73
2023/05/01 06:37:56;;;;;;;1999.90;999.90;;;14.50;99.90;;;;;;5055715;28;20025;-73
2023/05/01 06:40:22;;;;;;;1999.90;999.90;;;14.70;99.90;;;;;;5055818;28;20040;-73
2023/05/01 06:42:47;;;;;;;1999.90;999.90;;;14.90;99.90;;;;;;5055398;28;20535;-79
2023/05/01 06:45:13;;;;;;;1999.90;999.90;;;15.10;99.90;;;;;;5055640;28;20499;-73
2023/05/01 06:47:38;;;;;;;1999.90;999.90;;;15.30;99.90;;;;;;5054628;28;20029;-79
2023/05/01 06:50:06;;;;;;;1999.90;999.90;;;15.50;99.90;;;;;;5055341;28;20028;-79
2023/05/01 06:52:31;;;;;;;1999.90;999.90;;;15.60;99.90;;;;;;5055144;28;20045;-80
2023/05/01 06:54:57;;;;;;;1999.90;999.90;;;15.60;99.90;;;;;;5055069;28;20078;-80
2023/05/01 06:57:23;;;;;;;1999.90;999.90;;;15.60;99.90;;;;;;5055475;28;20412;-73
2023/05/01 06:59:48;;;;;;;1999.90;999.90;;;15.50;99.90;;;;;;5055398;28;20036;-73
2023/05/01 07:02:14;;;;;;;1999.90;999.90;;;15.50;99.90;;;;;;5055180;28;20024;-79
2023/05/01 07:04:43;;;;;;;1999.90;999.90;;;15.50;99.90;;;;;;5054793;28;20442;-79
2023/05/01 07:07:08;;;;;;;1999.90;999.90;;;15.60;99.90;;;;;;5055204;28;20031;-79
2023/05/01 07:09:35;;;;;;;1999.90;999.90;;;15.60;99.90;;;;;;5054916;28;20021;-73
2023/05/01 07:12:02;;;;;;;1999.90;999.90;;;15.70;99.90;;;;;;5055872;28;20017;-74
2023/05/01 07:14:27;;;;;;;1999.90;999.90;;;15.90;99.90;;;;;;5055120;28;20075;-73
2023/05/01 07:16:54;;;;;;;1999.90;999.90;;;16.20;99.90;;;;;;5055007;28;20427;-73
2023/05/01 07:19:20;;;;;;;1999.90;999.90;;;16.40;99.90;;;;;;5053550;28;20502;-80
2023/05/01 07:21:45;;;;;;;1999.90;999.90;;;16.50;99.90;;;;;;5054140;28;20100;-79
2023/05/01 07:24:12;;;;;;;1999.90;999.90;;;16.60;99.90;;;;;;5054363;28;20086;-73
2023/05/01 07:26:38;;;;;;;1999.90;999.90;;;16.80;99.90;;;;;;5054811;28;20028;-79
2023/05/01 07:29:04;;;;;;;1999.90;999.90;;;16.70;99.90;;;;;;5054672;28;20536;-73
2023/05/01 07:31:30;;;;;;;1999.90;999.90;;;16.90;99.90;;;;;;5054505;28;20032;-79
2023/05/01 07:33:55;;;;;;;1999.90;999.90;;;17.20;99.90;;;;;;5054837;28;20029;-80
2023/05/01 07:36:21;;;;;;;1999.90;999.90;;;17.10;99.90;;;;;;5054320;28;20083;-79
2023/05/01 07:38:49;;;;;;;1999.90;999.90;;;16.90;99.90;;;;;;5054313;28;20040;-73
2023/05/01 07:41:15;;;;;;;1999.90;999.90;;;16.80;99.90;;;;;;5054452;28;20103;-73
2023/05/01 07:43:41;;;;;;;1999.90;999.90;;;16.60;99.90;;;;;;5036579;28;20035;-79
2023/05/01 07:46:07;;;;;;;1999.90;999.90;;;16.40;99.90;;;;;;5054265;28;20021;-80
2023/05/01 07:48:32;;;;;;;1999.90;999.90;;;16.40;99.90;;;;;;5053130;28;20074;-73
2023/05/01 07:51:02;;;;;;;1999.90;999.90;;;16.10;99.90;;;;;;5036373;28;20660;-73
2023/05/01 07:53:27;;;;;;;1999.90;999.90;;;18.00;99.90;;;;;;5036386;28;20503;-80
2023/05/01 07:55:53;;;;;;;1999.90;999.90;;;21.20;99.90;;;;;;5053997;28;20028;-80
2023/05/01 07:58:19;;;;;;;1999.90;999.90;;;23.30;99.90;;;;;;5053266;28;20037;-80
2023/05/01 08:00:45;;;;;;;1999.90;999.90;;;25.10;99.90;;;;;;5053699;28;20025;-73
2023/05/01 08:03:11;;;;;;;1999.90;999.90;;;23.70;99.90;;;;;;5036142;28;20028;-74
2023/05/01 08:05:41;;;;;;;1999.90;999.90;;;23.50;99.90;;;;;;5053900;28;20025;-79
2023/05/01 08:08:06;;;;;;;1999.90;999.90;;;22.80;99.90;;;;;;5054068;28;20033;-80
2023/05/01 08:10:32;;;;;;;1999.90;999.90;;;21.10;99.90;;;;;;5053770;28;20029;-80
2023/05/01 08:12:58;;;;;;;1999.90;999.90;;;19.80;99.90;;;;;;5053781;28;20794;-74
2023/05/01 08:15:23;;;;;;;1999.90;999.90;;;18.70;99.90;;;;;;5054296;28;20013;-73
2023/05/01 08:17:50;;;;;;;1999.90;999.90;;;18.30;99.90;;;;;;5035967;28;20025;-74
2023/05/01 08:20:15;;;;;;;1999.90;999.90;;;18.40;99.90;;;;;;5053572;28;20017;-79
2023/05/01 08:22:41;;;;;;;1999.90;999.90;;;19.20;99.90;;;;;;5053611;28;20395;-73
2023/05/01 08:25:17;;;;;;;1999.90;999.90;;;19.70;99.90;;;;;;5053470;28;20025;-74
2023/05/01 08:27:42;;;;;;;1999.90;999.90;;;19.10;99.90;;;;;;5036460;28;20047;-74
2023/05/01 08:30:11;;;;;;;1999.90;999.90;;;21.00;99.90;;;;;;5053500;28;20499;-74
2023/05/01 08:32:37;;;;;;;1999.90;999.90;;;21.70;99.90;;;;;;5052868;28;20021;-80
2023/05/01 08:35:02;;;;;;;1999.90;999.90;;;21.50;99.90;;;;;;5053234;28;20059;-73
2023/05/01 08:37:28;;;;;;;1999.90;999.90;;;20.10;99.90;;;;;;5053440;28;20014;-80
2023/05/01 08:39:54;;;;;;;1999.90;999.90;;;19.40;99.90;;;;;;5053240;28;20017;-73
2023/05/01 08:42:20;;;;;;;1999.90;999.90;;;19.00;99.90;;;;;;5053312;28;20557;-73
2023/05/01 08:44:47;;;;;;;1999.90;999.90;;;18.60;99.90;;;;;;5053105;28;20036;-80
2023/05/01 08:47:16;;;;;;;1999.90;999.90;;;18.60;99.90;;;;;;5053140;28;20021;-80
2023/05/01 08:49:43;;;;;;;1999.90;999.90;;;20.20;99.90;;;;;;5052047;28;20480;-73
2023/05/01 08:52:13;;;;;;;1999.90;999.90;;;21.30;99.90;;;;;;5053000;28;20040;-80
2023/05/01 08:54:42;;;;;;;1999.90;999.90;;;21.80;99.90;;;;;;5052946;28;20036;-74
2023/05/01 08:57:10;;;;;;;1999.90;999.90;;;25.00;99.90;;;;;;5053352;28;20570;-74
2023/05/01 08:59:37;;;;;;;1999.90;999.90;;;24.20;99.90;;;;;;5052950;28;20028;-81
2023/05/01 09:02:04;;;;;;;1999.90;999.90;;;24.50;99.90;;;;;;5053035;28;20353;-81
2023/05/01 09:04:36;;;;;;;1999.90;999.90;;;22.80;99.90;;;;;;5052682;28;20091;-74
2023/05/01 09:07:03;;;;;;;1999.90;999.90;;;21.00;99.90;;;;;;5035290;28;20468;-73
2023/05/01 09:09:30;;;;;;;1999.90;999.90;;;20.60;99.90;;;;;;5052986;28;20025;-74
2023/05/01 09:12:23;;;;;;;1999.90;999.90;;;21.20;99.90;;;;;;5035032;28;20112;-81
2023/05/01 09:14:51;;;;;;;1999.90;999.90;;;23.60;99.90;;;;;;5048730;28;20135;-81
2023/05/01 09:17:17;;;;;;;1999.90;999.90;;;24.00;99.90;;;;;;5052833;28;20391;-81
2023/05/01 09:19:43;;;;;;;1999.90;999.90;;;23.80;99.90;;;;;;5052987;28;20033;-74
2023/05/01 09:22:09;;;;;;;1999.90;999.90;;;26.00;99.90;;;;;;5035180;28;20036;-74
2023/05/01 09:24:34;;;;;;;1999.90;999.90;;;24.10;99.90;;;;;;5052679;28;20503;-75
2023/05/01 09:27:00;;;;;;;1999.90;999.90;;;25.40;99.90;;;;;;5052729;28;20483;-81
2023/05/01 09:29:46;;;;;;;1999.90;999.90;;;24.40;99.90;;;;;;5052704;28;20449;-74
2023/05/01 09:32:20;;;;;;;1999.90;999.90;;;24.20;99.90;;;;;;5034644;28;20029;-74
2023/05/01 09:34:50;;;;;;;1999.90;999.90;;;23.90;99.90;;;;;;5052569;28;20042;-74
2023/05/01 09:37:29;;;;;;;1999.90;999.90;;;23.90;99.90;;;;;;5052598;28;20543;-76
2023/05/01 09:40:13;;;;;;;1999.90;999.90;;;26.50;99.90;;;;;;5052502;28;20049;-82
2023/05/01 09:42:50;;;;;;;1999.90;999.90;;;28.00;99.90;;;;;;5052502;28;20043;-81
2023/05/01 09:45:17;;;;;;;1999.90;999.90;;;27.10;99.90;;;;;;5055314;28;20075;-75
2023/05/01 09:47:44;;;;;;;1999.90;999.90;;;27.40;99.90;;;;;;5056837;28;20051;-75
2023/05/01 09:50:28;;;;;;;1999.90;999.90;;;26.50;99.90;;;;;;5055585;28;20430;-75
2023/05/01 09:52:54;;;;;;;1999.90;999.90;;;24.10;99.90;;;;;;5056237;28;20077;-82
2023/05/01 09:55:22;;;;;;;1999.90;999.90;;;25.10;99.90;;;;;;5056392;28;20470;-75
2023/05/01 09:57:48;;;;;;;1999.90;999.90;;;26.10;99.90;;;;;;5056924;28;20357;-82
2023/05/01 10:00:14;;;;;;;1999.90;999.90;;;27.40;99.90;;;;;;5056260;28;20028;-75
2023/05/01 10:02:42;;;;;;;1999.90;999.90;;;25.90;99.90;;;;;;5056042;28;20080;-80
2023/05/01 10:05:10;;;;;;;1999.90;999.90;;;25.30;99.90;;;;;;5056048;28;20028;-75
2023/05/01 10:07:36;;;;;;;1999.90;999.90;;;26.20;99.90;;;;;;5056473;28;20025;-81
2023/05/01 10:10:21;;;;;;;1999.90;999.90;;;26.80;99.90;;;;;;5056311;28;20432;-82
2023/05/01 10:12:47;;;;;;;1999.90;999.90;;;26.40;99.90;;;;;;5056331;28;20025;-74
2023/05/01 10:15:14;;;;;;;1999.90;999.90;;;26.10;99.90;;;;;;5055819;28;20029;-82
2023/05/01 10:17:42;;;;;;;1999.90;999.90;;;27.10;99.90;;;;;;5055710;28;20017;-82
2023/05/01 10:20:11;;;;;;;1999.90;999.90;;;27.90;99.90;;;;;;5055386;28;20096;-74
2023/05/01 10:22:37;;;;;;;1999.90;999.90;;;24.90;99.90;;;;;;5056337;28;20031;-74
2023/05/01 10:25:06;;;;;;;1999.90;999.90;;;23.20;99.90;;;;;;5055757;28;20059;-81
2023/05/01 10:27:34;;;;;;;1999.90;999.90;;;22.10;99.90;;;;;;5055762;28;20021;-81
2023/05/01 10:30:03;;;;;;;1999.90;999.90;;;22.20;99.90;;;;;;5055685;28;20430;-81
2023/05/01 10:32:31;;;;;;;1999.90;999.90;;;21.70;99.90;;;;;;5055874;28;20094;-81
2023/05/01 10:35:01;;;;;;;1999.90;999.90;;;23.00;99.90;;;;;;5055501;28;20527;-81
2023/05/01 10:38:02;;;;;;;1999.90;999.90;;;24.60;99.90;;;;;;5055619;28;20074;-75
2023/05/01 10:40:50;;;;;;;1999.90;999.90;;;24.50;99.90;;;;;;5055513;28;20074;-74
2023/05/01 10:43:30;;;;;;;1999.90;999.90;;;26.10;99.90;;;;;;5055893;28;20064;-82
2023/05/01 10:46:19;;;;;;;1999.90;999.90;;;25.90;99.90;;;;;;5055388;28;20021;-81
2023/05/01 10:48:45;;;;;;;1999.90;999.90;;;24.00;99.90;;;;;;5055342;28;20114;-81
2023/05/01 10:51:21;;;;;;;1999.90;999.90;;;23.60;99.90;;;;;;5054373;28;20028;-74
2023/05/01 10:54:12;;;;;;;1999.90;999.90;;;22.60;99.90;;;;;;5055427;28;20510;-80
2023/05/01 10:56:38;;;;;;;1999.90;999.90;;;21.60;99.90;;;;;;5054478;28;20585;-74
2023/05/01 10:59:05;;;;;;;1999.90;999.90;;;22.10;99.90;;;;;;5037642;28;20466;-73
2023/05/01 11:01:38;;;;;;;1999.90;999.90;;;21.20;99.90;;;;;;5054843;28;20048;-80
2023/05/01 11:04:26;;;;;;;1999.90;999.90;;;20.80;99.90;;;;;;5054958;28;20376;-74
2023/05/01 11:07:01;;;;;;;1999.90;999.90;;;22.20;99.90;;;;;;5054881;28;20399;-80
2023/05/01 11:09:42;;;;;;;1999.90;999.90;;;22.50;99.90;;;;;;5055091;28;20021;-81
2023/05/01 11:12:12;;;;;;;1999.90;999.90;;;23.00;99.90;;;;;;5055175;28;20025;-81
2023/05/01 11:14:54;;;;;;;1999.90;999.90;;;24.80;99.90;;;;;;5055111;28;20037;-80
2023/05/01 11:17:38;;;;;;;1999.90;999.90;;;23.30;99.90;;;;;;5054954;28;20029;-74
2023/05/01 11:20:05;;;;;;;1999.90;999.90;;;23.30;99.90;;;;;;5055205;28;20472;-81
2023/05/01 11:22:38;;;;;;;1999.90;999.90;;;23.80;99.90;;;;;;5054776;28;20103;-82
2023/05/01 11:25:20;;;;;;;1999.90;999.90;;;25.00;99.90;;;;;;5054810;28;20021;-75
2023/05/01 11:27:51;;;;;;;1999.90;999.90;;;26.10;99.90;;;;;;5054917;28;20025;-81
2023/05/01 11:30:18;;;;;;;1999.90;999.90;;;25.80;99.90;;;;;;5054864;28;20067;-74
2023/05/01 11:32:45;;;;;;;1999.90;999.90;;;25.60;99.90;;;;;;5036706;28;20025;-75
2023/05/01 11:35:21;;;;;;;1999.90;999.90;;;26.90;99.90;;;;;;5054475;28;20032;-81
2023/05/01 11:37:49;;;;;;;1999.90;999.90;;;25.00;99.90;;;;;;5054659;28;20391;-81
2023/05/01 11:40:23;;;;;;;1999.90;999.90;;;24.50;99.90;;;;;;5054398;28;20593;-80
2023/05/01 11:42:50;;;;;;;1999.90;999.90;;;24.60;99.90;;;;;;5054131;28;20139;-74
2023/05/01 11:45:17;;;;;;;1999.90;999.90;;;24.60;99.90;;;;;;5054519;28;20017;-75
2023/05/01 11:47:43;;;;;;;1999.90;999.90;;;24.50;99.90;;;;;;5054283;28;20610;-75
2023/05/01 11:50:09;;;;;;;1999.90;999.90;;;25.40;99.90;;;;;;5052623;28;20020;-82
2023/05/01 11:52:49;;;;;;;1999.90;999.90;;;25.80;99.90;;;;;;5053424;28;20048;-74
2023/05/01 11:55:15;;;;;;;1999.90;999.90;;;25.60;99.90;;;;;;5053990;28;20430;-74
2023/05/01 11:57:53;;;;;;;1999.90;999.90;;;24.90;99.90;;;;;;5054175;28;20025;-74
2023/05/01 12:00:28;;;;;;;1999.90;999.90;;;22.90;99.90;;;;;;5054481;28;20017;-80
2023/05/01 12:02:57;;;;;;;1999.90;999.90;;;21.90;99.90;;;;;;5054118;28;20040;-74
2023/05/01 12:05:25;;;;;;;1999.90;999.90;;;21.10;99.90;;;;;;5052574;28;20139;-80